sensor_id;sensor_type;location;lat;lon;timestamp;P1;durP1;ratioP1;P2;durP2;ratioP2
13321;SDS011;6730;46.248;6.930;2023-04-25T00:00:16;2.05;;;1.77;;
13321;SDS011;6730;46.248;6.930;2023-04-25T00:02:42;2.38;;;1.50;;
13321;SDS011;6730;46.248;6.930;2023-04-25T00:05:08;3.15;;;1.67;;
13321;SDS011;6730;46.248;6.930;2023-04-25T00:07:34;2.35;;;1.80;;
13321;SDS011;6730;46.248;6.930;2023-04-25T00:10:00;2.95;;;1.55;;
13321;SDS011;6730;46.248;6.930;2023-04-25T00:12:25;5.38;;;1.80;;
13321;SDS011;6730;46.248;6.930;2023-04-25T00:14:53;3.33;;;1.70;;
13321;SDS011;6730;46.248;6.930;2023-04-25T00:17:22;2.17;;;1.70;;
13321;SDS011;6730;46.248;6.930;2023-04-25T00:19:51;3.05;;;1.75;;
13321;SDS011;6730;46.248;6.930;2023-04-25T00:22:17;3.92;;;1.80;;
13321;SDS011;6730;46.248;6.930;2023-04-25T00:24:43;2.30;;;1.88;;
13321;SDS011;6730;46.248;6.930;2023-04-25T00:27:09;4.70;;;1.85;;
13321;SDS011;6730;46.248;6.930;2023-04-25T00:29:34;1.85;;;1.55;;
13321;SDS011;6730;46.248;6.930;2023-04-25T00:32:00;3.80;;;1.70;;
13321;SDS011;6730;46.248;6.930;2023-04-25T00:34:26;3.85;;;1.60;;
13321;SDS011;6730;46.248;6.930;2023-04-25T00:36:52;2.97;;;1.83;;
13321;SDS011;6730;46.248;6.930;2023-04-25T00:39:18;3.92;;;1.60;;
13321;SDS011;6730;46.248;6.930;2023-04-25T00:41:44;1.67;;;1.50;;
13321;SDS011;6730;46.248;6.930;2023-04-25T00:44:10;3.20;;;1.70;;
13321;SDS011;6730;46.248;6.930;2023-04-25T00:46:38;3.03;;;1.95;;
13321;SDS011;6730;46.248;6.930;2023-04-25T00:49:04;3.75;;;1.50;;
13321;SDS011;6730;46.248;6.930;2023-04-25T00:51:30;3.53;;;1.60;;
13321;SDS011;6730;46.248;6.930;2023-04-25T00:53:57;2.72;;;1.67;;
13321;SDS011;6730;46.248;6.930;2023-04-25T00:56:24;2.85;;;1.52;;
13321;SDS011;6730;46.248;6.930;2023-04-25T00:58:51;2.13;;;1.80;;
13321;SDS011;6730;46.248;6.930;2023-04-25T01:01:20;4.20;;;1.70;;
13321;SDS011;6730;46.248;6.930;2023-04-25T01:03:45;2.25;;;1.70;;
13321;SDS011;6730;46.248;6.930;2023-04-25T01:06:11;2.15;;;1.73;;
13321;SDS011;6730;46.248;6.930;2023-04-25T01:08:38;2.03;;;1.70;;
13321;SDS011;6730;46.248;6.930;2023-04-25T01:11:04;6.53;;;2.28;;
13321;SDS011;6730;46.248;6.930;2023-04-25T01:13:31;2.60;;;1.52;;
13321;SDS011;6730;46.248;6.930;2023-04-25T01:15:58;2.13;;;1.52;;
13321;SDS011;6730;46.248;6.930;2023-04-25T01:18:24;3.45;;;1.73;;
13321;SDS011;6730;46.248;6.930;2023-04-25T01:20:50;2.55;;;1.80;;
13321;SDS011;6730;46.248;6.930;2023-04-25T01:23:17;3.10;;;1.60;;
13321;SDS011;6730;46.248;6.930;2023-04-25T01:25:44;1.95;;;1.42;;
13321;SDS011;6730;46.248;6.930;2023-04-25T01:28:10;3.95;;;1.73;;
13321;SDS011;6730;46.248;6.930;2023-04-25T01:30:36;6.75;;;1.88;;
13321;SDS011;6730;46.248;6.930;2023-04-25T01:33:03;1.80;;;1.35;;
13321;SDS011;6730;46.248;6.930;2023-04-25T01:35:30;3.85;;;2.03;;
13321;SDS011;6730;46.248;6.930;2023-04-25T01:37:56;2.22;;;1.50;;
13321;SDS011;6730;46.248;6.930;2023-04-25T01:40:22;2.35;;;1.60;;
13321;SDS011;6730;46.248;6.930;2023-04-25T01:42:49;3.58;;;1.92;;
13321;SDS011;6730;46.248;6.930;2023-04-25T01:45:16;2.03;;;1.60;;
13321;SDS011;6730;46.248;6.930;2023-04-25T01:47:43;2.88;;;1.48;;
13321;SDS011;6730;46.248;6.930;2023-04-25T01:50:12;2.13;;;1.50;;
13321;SDS011;6730;46.248;6.930;2023-04-25T01:52:37;1.77;;;1.50;;
13321;SDS011;6730;46.248;6.930;2023-04-25T01:55:03;2.13;;;1.60;;
13321;SDS011;6730;46.248;6.930;2023-04-25T01:57:30;5.25;;;1.75;;
13321;SDS011;6730;46.248;6.930;2023-04-25T01:59:59;3.60;;;1.83;;
13321;SDS011;6730;46.248;6.930;2023-04-25T02:02:27;2.60;;;1.80;;
13321;SDS011;6730;46.248;6.930;2023-04-25T02:04:53;2.10;;;1.70;;
13321;SDS011;6730;46.248;6.930;2023-04-25T02:07:19;4.18;;;1.77;;
13321;SDS011;6730;46.248;6.930;2023-04-25T02:09:46;3.03;;;2.00;;
13321;SDS011;6730;46.248;6.930;2023-04-25T02:12:11;3.22;;;1.90;;
13321;SDS011;6730;46.248;6.930;2023-04-25T02:14:37;2.58;;;1.60;;
13321;SDS011;6730;46.248;6.930;2023-04-25T02:17:03;2.38;;;1.83;;
13321;SDS011;6730;46.248;6.930;2023-04-25T02:19:29;2.92;;;2.00;;
13321;SDS011;6730;46.248;6.930;2023-04-25T02:21:54;2.60;;;1.88;;
13321;SDS011;6730;46.248;6.930;2023-04-25T02:24:22;2.78;;;1.65;;
13321;SDS011;6730;46.248;6.930;2023-04-25T02:26:47;4.93;;;2.13;;
13321;SDS011;6730;46.248;6.930;2023-04-25T02:29:14;2.25;;;1.70;;
13321;SDS011;6730;46.248;6.930;2023-04-25T02:31:40;2.42;;;1.80;;
13321;SDS011;6730;46.248;6.930;2023-04-25T02:34:06;3.70;;;1.70;;
13321;SDS011;6730;46.248;6.930;2023-04-25T02:36:32;3.90;;;2.08;;
13321;SDS011;6730;46.248;6.930;2023-04-25T02:38:59;2.53;;;1.88;;
13321;SDS011;6730;46.248;6.930;2023-04-25T02:41:25;4.03;;;2.00;;
13321;SDS011;6730;46.248;6.930;2023-04-25T02:43:51;1.73;;;1.52;;
13321;SDS011;6730;46.248;6.930;2023-04-25T02:46:17;3.42;;;2.08;;
13321;SDS011;6730;46.248;6.930;2023-04-25T02:48:43;3.45;;;1.95;;
13321;SDS011;6730;46.248;6.930;2023-04-25T02:51:09;2.10;;;1.90;;
13321;SDS011;6730;46.248;6.930;2023-04-25T02:53:34;3.90;;;2.03;;
13321;SDS011;6730;46.248;6.930;2023-04-25T02:56:00;3.38;;;1.98;;
13321;SDS011;6730;46.248;6.930;2023-04-25T02:58:26;2.67;;;2.10;;
13321;SDS011;6730;46.248;6.930;2023-04-25T03:00:52;4.25;;;1.83;;
13321;SDS011;6730;46.248;6.930;2023-04-25T03:03:17;3.58;;;2.20;;
13321;SDS011;6730;46.248;6.930;2023-04-25T03:05:46;3.60;;;2.50;;
13321;SDS011;6730;46.248;6.930;2023-04-25T03:08:15;2.85;;;2.28;;
13321;SDS011;6730;46.248;6.930;2023-04-25T03:10:44;3.17;;;2.20;;
13321;SDS011;6730;46.248;6.930;2023-04-25T03:13:10;2.05;;;1.70;;
13321;SDS011;6730;46.248;6.930;2023-04-25T03:15:36;3.40;;;2.25;;
13321;SDS011;6730;46.248;6.930;2023-04-25T03:18:03;4.07;;;2.22;;
13321;SDS011;6730;46.248;6.930;2023-04-25T03:20:29;2.42;;;1.88;;
13321;SDS011;6730;46.248;6.930;2023-04-25T03:22:55;3.17;;;2.33;;
13321;SDS011;6730;46.248;6.930;2023-04-25T03:25:21;3.27;;;2.20;;
13321;SDS011;6730;46.248;6.930;2023-04-25T03:27:46;4.72;;;2.38;;
13321;SDS011;6730;46.248;6.930;2023-04-25T03:30:12;2.33;;;2.07;;
13321;SDS011;6730;46.248;6.930;2023-04-25T03:32:38;3.73;;;2.40;;
13321;SDS011;6730;46.248;6.930;2023-04-25T03:35:03;2.67;;;2.47;;
13321;SDS011;6730;46.248;6.930;2023-04-25T03:37:30;3.70;;;2.15;;
13321;SDS011;6730;46.248;6.930;2023-04-25T03:39:56;3.47;;;1.88;;
13321;SDS011;6730;46.248;6.930;2023-04-25T03:42:21;2.35;;;1.90;;
13321;SDS011;6730;46.248;6.930;2023-04-25T03:44:48;4.63;;;2.20;;
13321;SDS011;6730;46.248;6.930;2023-04-25T03:47:14;4.63;;;2.90;;
13321;SDS011;6730;46.248;6.930;2023-04-25T03:49:40;3.67;;;2.45;;
13321;SDS011;6730;46.248;6.930;2023-04-25T03:52:06;5.10;;;2.50;;
13321;SDS011;6730;46.248;6.930;2023-04-25T03:54:32;3.88;;;2.42;;
13321;SDS011;6730;46.248;6.930;2023-04-25T03:56:58;3.60;;;2.25;;
13321;SDS011;6730;46.248;6.930;2023-04-25T03:59:23;4.78;;;2.08;;
13321;SDS011;6730;46.248;6.930;2023-04-25T04:01:51;5.20;;;2.30;;
13321;SDS011;6730;46.248;6.930;2023-04-25T04:04:17;3.92;;;2.20;;
13321;SDS011;6730;46.248;6.930;2023-04-25T04:06:42;3.40;;;2.47;;
13321;SDS011;6730;46.248;6.930;2023-04-25T04:09:08;2.75;;;1.92;;
13321;SDS011;6730;46.248;6.930;2023-04-25T04:11:36;1.92;;;1.73;;
13321;SDS011;6730;46.248;6.930;2023-04-25T04:14:04;2.13;;;1.90;;
13321;SDS011;6730;46.248;6.930;2023-04-25T04:16:31;4.25;;;2.00;;
13321;SDS011;6730;46.248;6.930;2023-04-25T04:18:56;3.95;;;2.30;;
13321;SDS011;6730;46.248;6.930;2023-04-25T04:21:22;2.38;;;2.17;;
13321;SDS011;6730;46.248;6.930;2023-04-25T04:23:47;3.03;;;2.37;;
13321;SDS011;6730;46.248;6.930;2023-04-25T04:26:13;3.73;;;2.00;;
13321;SDS011;6730;46.248;6.930;2023-04-25T04:28:41;2.20;;;1.93;;
13321;SDS011;6730;46.248;6.930;2023-04-25T04:31:09;4.77;;;4.00;;
13321;SDS011;6730;46.248;6.930;2023-04-25T04:33:35;10.57;;;6.83;;
13321;SDS011;6730;46.248;6.930;2023-04-25T04:36:02;7.70;;;4.40;;
13321;SDS011;6730;46.248;6.930;2023-04-25T04:38:28;3.07;;;2.77;;
13321;SDS011;6730;46.248;6.930;2023-04-25T04:40:55;7.03;;;5.23;;
13321;SDS011;6730;46.248;6.930;2023-04-25T04:43:21;7.17;;;3.33;;
13321;SDS011;6730;46.248;6.930;2023-04-25T04:45:47;4.73;;;3.23;;
13321;SDS011;6730;46.248;6.930;2023-04-25T04:48:15;3.90;;;2.57;;
13321;SDS011;6730;46.248;6.930;2023-04-25T04:50:42;7.10;;;2.83;;
13321;SDS011;6730;46.248;6.930;2023-04-25T04:53:10;2.85;;;1.95;;
13321;SDS011;6730;46.248;6.930;2023-04-25T04:55:36;1.77;;;1.58;;
13321;SDS011;6730;46.248;6.930;2023-04-25T04:58:01;1.80;;;1.50;;
13321;SDS011;6730;46.248;6.930;2023-04-25T05:00:30;3.30;;;1.30;;
13321;SDS011;6730;46.248;6.930;2023-04-25T05:02:56;1.60;;;1.42;;
13321;SDS011;6730;46.248;6.930;2023-04-25T05:05:21;2.60;;;1.33;;
13321;SDS011;6730;46.248;6.930;2023-04-25T05:07:47;1.27;;;1.17;;
13321;SDS011;6730;46.248;6.930;2023-04-25T05:10:13;0.70;;;0.70;;
13321;SDS011;6730;46.248;6.930;2023-04-25T05:12:38;1.30;;;0.90;;
13321;SDS011;6730;46.248;6.930;2023-04-25T05:15:04;0.90;;;0.90;;
13321;SDS011;6730;46.248;6.930;2023-04-25T05:17:30;1.23;;;1.00;;
13321;SDS011;6730;46.248;6.930;2023-04-25T05:19:57;1.10;;;0.70;;
13321;SDS011;6730;46.248;6.930;2023-04-25T05:22:23;1.10;;;1.00;;
13321;SDS011;6730;46.248;6.930;2023-04-25T05:24:49;1.10;;;1.00;;
13321;SDS011;6730;46.248;6.930;2023-04-25T05:27:16;0.80;;;0.80;;
13321;SDS011;6730;46.248;6.930;2023-04-25T05:29:43;0.95;;;0.90;;
13321;SDS011;6730;46.248;6.930;2023-04-25T05:32:09;1.50;;;1.30;;
13321;SDS011;6730;46.248;6.930;2023-04-25T05:34:35;1.55;;;1.08;;
13321;SDS011;6730;46.248;6.930;2023-04-25T05:37:01;1.70;;;1.08;;
13321;SDS011;6730;46.248;6.930;2023-04-25T05:39:27;1.55;;;0.80;;
13321;SDS011;6730;46.248;6.930;2023-04-25T05:41:53;0.77;;;0.77;;
13321;SDS011;6730;46.248;6.930;2023-04-25T05:44:19;1.77;;;0.65;;
13321;SDS011;6730;46.248;6.930;2023-04-25T05:46:45;1.75;;;0.70;;
13321;SDS011;6730;46.248;6.930;2023-04-25T05:49:11;0.60;;;0.60;;
13321;SDS011;6730;46.248;6.930;2023-04-25T05:51:36;0.70;;;0.70;;
13321;SDS011;6730;46.248;6.930;2023-04-25T05:54:02;0.80;;;0.80;;
13321;SDS011;6730;46.248;6.930;2023-04-25T05:56:28;1.30;;;0.80;;
13321;SDS011;6730;46.248;6.930;2023-04-25T05:58:53;1.07;;;0.80;;
13321;SDS011;6730;46.248;6.930;2023-04-25T06:01:21;0.80;;;0.80;;
13321;SDS011;6730;46.248;6.930;2023-04-25T06:03:48;0.87;;;0.80;;
13321;SDS011;6730;46.248;6.930;2023-04-25T06:06:13;0.50;;;0.50;;
13321;SDS011;6730;46.248;6.930;2023-04-25T06:08:40;0.50;;;0.50;;
13321;SDS011;6730;46.248;6.930;2023-04-25T06:11:09;0.67;;;0.50;;
13321;SDS011;6730;46.248;6.930;2023-04-25T06:13:34;0.73;;;0.50;;
13321;SDS011;6730;46.248;6.930;2023-04-25T06:16:00;0.40;;;0.40;;
13321;SDS011;6730;46.248;6.930;2023-04-25T06:18:26;0.30;;;0.30;;
13321;SDS011;6730;46.248;6.930;2023-04-25T06:21:00;0.50;;;0.47;;
13321;SDS011;6730;46.248;6.930;2023-04-25T06:23:26;0.50;;;0.50;;
13321;SDS011;6730;46.248;6.930;2023-04-25T06:25:52;0.50;;;0.50;;
13321;SDS011;6730;46.248;6.930;2023-04-25T06:28:17;0.82;;;0.52;;
13321;SDS011;6730;46.248;6.930;2023-04-25T06:30:44;0.32;;;0.32;;
13321;SDS011;6730;46.248;6.930;2023-04-25T06:33:10;0.38;;;0.38;;
13321;SDS011;6730;46.248;6.930;2023-04-25T06:35:35;1.60;;;0.50;;
13321;SDS011;6730;46.248;6.930;2023-04-25T06:38:01;0.40;;;0.40;;
13321;SDS011;6730;46.248;6.930;2023-04-25T06:40:27;0.43;;;0.43;;
13321;SDS011;6730;46.248;6.930;2023-04-25T06:42:52;0.50;;;0.30;;
13321;SDS011;6730;46.248;6.930;2023-04-25T06:45:18;0.35;;;0.35;;
13321;SDS011;6730;46.248;6.930;2023-04-25T06:47:43;0.25;;;0.25;;
13321;SDS011;6730;46.248;6.930;2023-04-25T06:50:09;0.28;;;0.28;;
13321;SDS011;6730;46.248;6.930;2023-04-25T06:52:35;0.98;;;0.57;;
13321;SDS011;6730;46.248;6.930;2023-04-25T06:55:01;5.15;;;3.50;;
13321;SDS011;6730;46.248;6.930;2023-04-25T06:57:27;26.17;;;10.27;;
13321;SDS011;6730;46.248;6.930;2023-04-25T07:00:04;16.80;;;6.95;;
13321;SDS011;6730;46.248;6.930;2023-04-25T07:02:33;6.00;;;2.70;;
13321;SDS011;6730;46.248;6.930;2023-04-25T07:05:02;3.05;;;1.88;;
13321;SDS011;6730;46.248;6.930;2023-04-25T07:07:31;15.52;;;8.43;;
13321;SDS011;6730;46.248;6.930;2023-04-25T07:09:57;21.25;;;10.95;;
13321;SDS011;6730;46.248;6.930;2023-04-25T07:12:23;14.02;;;7.20;;
13321;SDS011;6730;46.248;6.930;2023-04-25T07:14:48;14.60;;;8.20;;
13321;SDS011;6730;46.248;6.930;2023-04-25T07:17:14;4.32;;;3.42;;
13321;SDS011;6730;46.248;6.930;2023-04-25T07:19:40;15.38;;;9.65;;
13321;SDS011;6730;46.248;6.930;2023-04-25T07:22:06;16.98;;;9.23;;
13321;SDS011;6730;46.248;6.930;2023-04-25T07:24:31;12.90;;;8.00;;
13321;SDS011;6730;46.248;6.930;2023-04-25T07:26:57;8.07;;;5.73;;
13321;SDS011;6730;46.248;6.930;2023-04-25T07:29:23;22.57;;;14.50;;
13321;SDS011;6730;46.248;6.930;2023-04-25T07:31:49;22.87;;;15.50;;
13321;SDS011;6730;46.248;6.930;2023-04-25T07:34:14;11.10;;;8.57;;
13321;SDS011;6730;46.248;6.930;2023-04-25T07:36:40;23.77;;;17.63;;
13321;SDS011;6730;46.248;6.930;2023-04-25T07:39:06;15.87;;;11.70;;
13321;SDS011;6730;46.248;6.930;2023-04-25T07:41:34;34.30;;;28.37;;
13321;SDS011;6730;46.248;6.930;2023-04-25T07:44:00;5.73;;;4.67;;
13321;SDS011;6730;46.248;6.930;2023-04-25T07:46:25;3.30;;;1.70;;
13321;SDS011;6730;46.248;6.930;2023-04-25T07:48:51;1.30;;;1.20;;
13321;SDS011;6730;46.248;6.930;2023-04-25T07:51:17;3.43;;;2.67;;
13321;SDS011;6730;46.248;6.930;2023-04-25T07:53:44;2.53;;;1.90;;
13321;SDS011;6730;46.248;6.930;2023-04-25T07:56:11;4.83;;;4.03;;
13321;SDS011;6730;46.248;6.930;2023-04-25T07:58:36;2.07;;;1.80;;
13321;SDS011;6730;46.248;6.930;2023-04-25T08:01:02;2.20;;;1.97;;
13321;SDS011;6730;46.248;6.930;2023-04-25T08:03:28;2.80;;;2.47;;
13321;SDS011;6730;46.248;6.930;2023-04-25T08:05:53;2.13;;;1.53;;
13321;SDS011;6730;46.248;6.930;2023-04-25T08:08:19;1.40;;;1.30;;
13321;SDS011;6730;46.248;6.930;2023-04-25T08:10:45;1.47;;;1.20;;
13321;SDS011;6730;46.248;6.930;2023-04-25T08:13:12;1.30;;;1.20;;
13321;SDS011;6730;46.248;6.930;2023-04-25T08:15:38;1.97;;;1.37;;
13321;SDS011;6730;46.248;6.930;2023-04-25T08:18:04;1.50;;;1.40;;
13321;SDS011;6730;46.248;6.930;2023-04-25T08:20:30;1.97;;;1.80;;
13321;SDS011;6730;46.248;6.930;2023-04-25T08:22:56;2.37;;;1.47;;
13321;SDS011;6730;46.248;6.930;2023-04-25T08:25:21;1.93;;;1.30;;
13321;SDS011;6730;46.248;6.930;2023-04-25T08:27:47;1.43;;;1.30;;
13321;SDS011;6730;46.248;6.930;2023-04-25T08:30:13;1.40;;;1.30;;
13321;SDS011;6730;46.248;6.930;2023-04-25T08:32:39;1.70;;;1.33;;
13321;SDS011;6730;46.248;6.930;2023-04-25T08:35:05;2.33;;;1.55;;
13321;SDS011;6730;46.248;6.930;2023-04-25T08:37:31;1.23;;;1.10;;
13321;SDS011;6730;46.248;6.930;2023-04-25T08:39:57;1.83;;;1.42;;
13321;SDS011;6730;46.248;6.930;2023-04-25T08:42:23;1.27;;;1.17;;
13321;SDS011;6730;46.248;6.930;2023-04-25T08:44:52;1.83;;;1.00;;
13321;SDS011;6730;46.248;6.930;2023-04-25T08:47:19;1.40;;;1.30;;
13321;SDS011;6730;46.248;6.930;2023-04-25T08:49:47;1.67;;;1.20;;
13321;SDS011;6730;46.248;6.930;2023-04-25T08:52:14;1.27;;;1.00;;
13321;SDS011;6730;46.248;6.930;2023-04-25T08:54:42;1.17;;;1.08;;
13321;SDS011;6730;46.248;6.930;2023-04-25T08:57:10;1.10;;;1.00;;
13321;SDS011;6730;46.248;6.930;2023-04-25T08:59:36;2.00;;;1.02;;
13321;SDS011;6730;46.248;6.930;2023-04-25T09:02:03;1.38;;;1.25;;
13321;SDS011;6730;46.248;6.930;2023-04-25T09:04:30;3.55;;;1.70;;
13321;SDS011;6730;46.248;6.930;2023-04-25T09:06:56;3.63;;;1.90;;
13321;SDS011;6730;46.248;6.930;2023-04-25T09:09:23;3.00;;;1.52;;
13321;SDS011;6730;46.248;6.930;2023-04-25T09:11:49;2.72;;;1.35;;
13321;SDS011;6730;46.248;6.930;2023-04-25T09:14:22;2.28;;;1.70;;
13321;SDS011;6730;46.248;6.930;2023-04-25T09:19:26;1.50;;;1.40;;
13321;SDS011;6730;46.248;6.930;2023-04-25T09:21:56;2.65;;;1.83;;
13321;SDS011;6730;46.248;6.930;2023-04-25T09:24:56;2.80;;;1.60;;
13321;SDS011;6730;46.248;6.930;2023-04-25T09:27:19;2.90;;;1.50;;
13321;SDS011;6730;46.248;6.930;2023-04-25T09:29:51;1.52;;;1.42;;
13321;SDS011;6730;46.248;6.930;2023-04-25T09:32:26;1.58;;;1.45;;
13321;SDS011;6730;46.248;6.930;2023-04-25T09:34:53;2.28;;;1.58;;
13321;SDS011;6730;46.248;6.930;2023-04-25T09:37:23;2.30;;;1.65;;
13321;SDS011;6730;46.248;6.930;2023-04-25T09:39:52;1.80;;;1.60;;
13321;SDS011;6730;46.248;6.930;2023-04-25T09:42:25;2.38;;;1.60;;
13321;SDS011;6730;46.248;6.930;2023-04-25T09:44:55;1.65;;;1.40;;
13321;SDS011;6730;46.248;6.930;2023-04-25T09:47:22;1.90;;;1.70;;
13321;SDS011;6730;46.248;6.930;2023-04-25T09:49:50;2.38;;;1.90;;
13321;SDS011;6730;46.248;6.930;2023-04-25T09:52:20;2.33;;;2.13;;
13321;SDS011;6730;46.248;6.930;2023-04-25T09:54:48;3.08;;;2.20;;
13321;SDS011;6730;46.248;6.930;2023-04-25T09:57:15;3.72;;;1.95;;
13321;SDS011;6730;46.248;6.930;2023-04-25T09:59:43;2.55;;;2.35;;
13321;SDS011;6730;46.248;6.930;2023-04-25T10:02:14;2.30;;;2.10;;
13321;SDS011;6730;46.248;6.930;2023-04-25T10:04:41;2.13;;;1.80;;
13321;SDS011;6730;46.248;6.930;2023-04-25T10:07:10;3.05;;;1.90;;
13321;SDS011;6730;46.248;6.930;2023-04-25T10:09:37;4.43;;;2.25;;
13321;SDS011;6730;46.248;6.930;2023-04-25T10:12:07;2.90;;;1.75;;
13321;SDS011;6730;46.248;6.930;2023-04-25T10:14:33;4.88;;;2.30;;
13321;SDS011;6730;46.248;6.930;2023-04-25T10:16:59;2.65;;;1.95;;
13321;SDS011;6730;46.248;6.930;2023-04-25T10:19:26;2.42;;;2.22;;
13321;SDS011;6730;46.248;6.930;2023-04-25T10:21:58;2.20;;;2.00;;
13321;SDS011;6730;46.248;6.930;2023-04-25T10:24:34;2.63;;;2.08;;
13321;SDS011;6730;46.248;6.930;2023-04-25T10:27:02;3.53;;;1.75;;
13321;SDS011;6730;46.248;6.930;2023-04-25T10:29:28;1.88;;;1.65;;
13321;SDS011;6730;46.248;6.930;2023-04-25T10:31:55;2.08;;;1.77;;
13321;SDS011;6730;46.248;6.930;2023-04-25T10:34:44;3.15;;;2.50;;
13321;SDS011;6730;46.248;6.930;2023-04-25T10:37:13;2.55;;;2.33;;
13321;SDS011;6730;46.248;6.930;2023-04-25T10:39:39;3.38;;;2.20;;
13321;SDS011;6730;46.248;6.930;2023-04-25T10:42:09;1.77;;;1.63;;
13321;SDS011;6730;46.248;6.930;2023-04-25T10:44:35;2.30;;;1.95;;
13321;SDS011;6730;46.248;6.930;2023-04-25T10:47:02;2.03;;;1.67;;
13321;SDS011;6730;46.248;6.930;2023-04-25T10:49:34;2.08;;;1.73;;
13321;SDS011;6730;46.248;6.930;2023-04-25T10:52:17;2.07;;;1.50;;
13321;SDS011;6730;46.248;6.930;2023-04-25T10:54:52;1.70;;;1.60;;
13321;SDS011;6730;46.248;6.930;2023-04-25T10:57:26;2.97;;;2.30;;
13321;SDS011;6730;46.248;6.930;2023-04-25T11:00:00;3.33;;;2.03;;
13321;SDS011;6730;46.248;6.930;2023-04-25T11:02:30;4.40;;;2.22;;
13321;SDS011;6730;46.248;6.930;2023-04-25T11:04:56;2.17;;;1.83;;
13321;SDS011;6730;46.248;6.930;2023-04-25T11:07:37;2.70;;;2.00;;
13321;SDS011;6730;46.248;6.930;2023-04-25T11:10:14;2.83;;;2.00;;
13321;SDS011;6730;46.248;6.930;2023-04-25T11:12:40;3.83;;;2.30;;
13321;SDS011;6730;46.248;6.930;2023-04-25T11:15:06;3.08;;;2.15;;
13321;SDS011;6730;46.248;6.930;2023-04-25T11:17:33;2.63;;;2.20;;
13321;SDS011;6730;46.248;6.930;2023-04-25T11:19:59;2.70;;;2.35;;
13321;SDS011;6730;46.248;6.930;2023-04-25T11:22:26;2.53;;;1.60;;
13321;SDS011;6730;46.248;6.930;2023-04-25T11:24:52;1.60;;;1.48;;
13321;SDS011;6730;46.248;6.930;2023-04-25T11:27:18;3.13;;;2.33;;
13321;SDS011;6730;46.248;6.930;2023-04-25T11:29:44;5.40;;;2.60;;
13321;SDS011;6730;46.248;6.930;2023-04-25T11:32:12;2.38;;;1.60;;
13321;SDS011;6730;46.248;6.930;2023-04-25T11:34:42;1.83;;;1.50;;
13321;SDS011;6730;46.248;6.930;2023-04-25T11:37:09;2.38;;;1.90;;
13321;SDS011;6730;46.248;6.930;2023-04-25T11:39:36;4.15;;;1.83;;
13321;SDS011;6730;46.248;6.930;2023-04-25T11:42:03;4.55;;;2.20;;
13321;SDS011;6730;46.248;6.930;2023-04-25T11:44:30;3.70;;;2.28;;
13321;SDS011;6730;46.248;6.930;2023-04-25T11:46:56;2.08;;;1.75;;
13321;SDS011;6730;46.248;6.930;2023-04-25T11:49:22;1.73;;;1.40;;
13321;SDS011;6730;46.248;6.930;2023-04-25T11:51:49;2.55;;;1.70;;
13321;SDS011;6730;46.248;6.930;2023-04-25T11:54:15;2.63;;;2.42;;
13321;SDS011;6730;46.248;6.930;2023-04-25T11:56:44;3.40;;;1.75;;
13321;SDS011;6730;46.248;6.930;2023-04-25T11:59:10;2.00;;;1.80;;
13321;SDS011;6730;46.248;6.930;2023-04-25T12:01:38;1.88;;;1.60;;
13321;SDS011;6730;46.248;6.930;2023-04-25T12:04:10;2.08;;;1.67;;
13321;SDS011;6730;46.248;6.930;2023-04-25T12:06:37;3.65;;;1.65;;
13321;SDS011;6730;46.248;6.930;2023-04-25T12:09:10;4.35;;;2.28;;
13321;SDS011;6730;46.248;6.930;2023-04-25T12:11:48;1.83;;;1.60;;
13321;SDS011;6730;46.248;6.930;2023-04-25T12:14:21;1.92;;;1.55;;
13321;SDS011;6730;46.248;6.930;2023-04-25T12:16:49;1.95;;;1.77;;
13321;SDS011;6730;46.248;6.930;2023-04-25T12:19:16;2.63;;;1.55;;
13321;SDS011;6730;46.248;6.930;2023-04-25T12:21:43;2.40;;;1.77;;
13321;SDS011;6730;46.248;6.930;2023-04-25T12:26:46;1.73;;;1.63;;
13321;SDS011;6730;46.248;6.930;2023-04-25T12:29:22;1.95;;;1.48;;
13321;SDS011;6730;46.248;6.930;2023-04-25T12:31:50;3.13;;;1.75;;
13321;SDS011;6730;46.248;6.930;2023-04-25T12:34:17;1.67;;;1.48;;
13321;SDS011;6730;46.248;6.930;2023-04-25T12:36:46;2.42;;;1.95;;
13321;SDS011;6730;46.248;6.930;2023-04-25T12:39:20;2.20;;;2.00;;
13321;SDS011;6730;46.248;6.930;2023-04-25T12:41:50;2.47;;;2.25;;
13321;SDS011;6730;46.248;6.930;2023-04-25T12:44:19;2.83;;;2.22;;
13321;SDS011;6730;46.248;6.930;2023-04-25T12:46:46;2.30;;;1.83;;
13321;SDS011;6730;46.248;6.930;2023-04-25T12:49:12;2.00;;;1.80;;
13321;SDS011;6730;46.248;6.930;2023-04-25T12:51:38;1.55;;;1.20;;
13321;SDS011;6730;46.248;6.930;2023-04-25T12:54:04;1.17;;;1.00;;
13321;SDS011;6730;46.248;6.930;2023-04-25T12:56:32;1.75;;;1.52;;
13321;SDS011;6730;46.248;6.930;2023-04-25T12:58:57;3.55;;;1.85;;
13321;SDS011;6730;46.248;6.930;2023-04-25T13:01:24;3.65;;;1.60;;
13321;SDS011;6730;46.248;6.930;2023-04-25T13:03:50;1.73;;;1.50;;
13321;SDS011;6730;46.248;6.930;2023-04-25T13:06:16;1.77;;;1.38;;
13321;SDS011;6730;46.248;6.930;2023-04-25T13:08:43;3.35;;;1.73;;
13321;SDS011;6730;46.248;6.930;2023-04-25T13:11:09;5.93;;;1.40;;
13321;SDS011;6730;46.248;6.930;2023-04-25T13:13:35;2.92;;;1.67;;
13321;SDS011;6730;46.248;6.930;2023-04-25T13:16:03;2.50;;;1.40;;
13321;SDS011;6730;46.248;6.930;2023-04-25T13:18:30;1.60;;;1.50;;
13321;SDS011;6730;46.248;6.930;2023-04-25T13:20:56;1.40;;;1.30;;
13321;SDS011;6730;46.248;6.930;2023-04-25T13:23:24;1.73;;;1.55;;
13321;SDS011;6730;46.248;6.930;2023-04-25T13:25:51;1.65;;;1.55;;
13321;SDS011;6730;46.248;6.930;2023-04-25T13:28:17;2.58;;;1.52;;
13321;SDS011;6730;46.248;6.930;2023-04-25T13:30:46;1.60;;;1.50;;
13321;SDS011;6730;46.248;6.930;2023-04-25T13:33:13;1.60;;;1.30;;
13321;SDS011;6730;46.248;6.930;2023-04-25T13:35:39;1.40;;;1.15;;
13321;SDS011;6730;46.248;6.930;2023-04-25T13:38:06;2.53;;;1.45;;
13321;SDS011;6730;46.248;6.930;2023-04-25T13:40:31;1.60;;;1.50;;
13321;SDS011;6730;46.248;6.930;2023-04-25T13:42:57;1.42;;;1.33;;
13321;SDS011;6730;46.248;6.930;2023-04-25T13:45:24;3.55;;;1.60;;
13321;SDS011;6730;46.248;6.930;2023-04-25T13:47:49;2.63;;;1.30;;
13321;SDS011;6730;46.248;6.930;2023-04-25T13:50:15;3.10;;;1.27;;
13321;SDS011;6730;46.248;6.930;2023-04-25T13:52:41;3.72;;;1.38;;
13321;SDS011;6730;46.248;6.930;2023-04-25T13:55:07;3.58;;;1.42;;
13321;SDS011;6730;46.248;6.930;2023-04-25T13:57:33;2.97;;;1.42;;
13321;SDS011;6730;46.248;6.930;2023-04-25T14:00:00;2.00;;;1.75;;
13321;SDS011;6730;46.248;6.930;2023-04-25T14:02:33;2.55;;;1.50;;
13321;SDS011;6730;46.248;6.930;2023-04-25T14:04:58;1.38;;;1.23;;
13321;SDS011;6730;46.248;6.930;2023-04-25T14:07:25;1.55;;;1.38;;
13321;SDS011;6730;46.248;6.930;2023-04-25T14:09:51;1.58;;;1.42;;
13321;SDS011;6730;46.248;6.930;2023-04-25T14:12:17;2.72;;;1.70;;
13321;SDS011;6730;46.248;6.930;2023-04-25T14:14:42;1.60;;;1.40;;
13321;SDS011;6730;46.248;6.930;2023-04-25T14:17:08;1.50;;;1.30;;
13321;SDS011;6730;46.248;6.930;2023-04-25T14:19:34;1.85;;;1.38;;
13321;SDS011;6730;46.248;6.930;2023-04-25T14:22:00;3.25;;;1.40;;
13321;SDS011;6730;46.248;6.930;2023-04-25T14:24:26;1.70;;;1.40;;
13321;SDS011;6730;46.248;6.930;2023-04-25T14:26:51;2.88;;;1.60;;
13321;SDS011;6730;46.248;6.930;2023-04-25T14:29:17;1.92;;;1.48;;
13321;SDS011;6730;46.248;6.930;2023-04-25T14:31:43;2.00;;;1.42;;
13321;SDS011;6730;46.248;6.930;2023-04-25T14:34:09;1.70;;;1.40;;
13321;SDS011;6730;46.248;6.930;2023-04-25T14:36:36;1.67;;;1.50;;
13321;SDS011;6730;46.248;6.930;2023-04-25T14:39:02;1.40;;;1.30;;
13321;SDS011;6730;46.248;6.930;2023-04-25T14:41:28;3.55;;;1.88;;
13321;SDS011;6730;46.248;6.930;2023-04-25T14:43:53;1.77;;;1.50;;
13321;SDS011;6730;46.248;6.930;2023-04-25T14:46:20;2.47;;;1.40;;
13321;SDS011;6730;46.248;6.930;2023-04-25T14:48:47;1.88;;;1.27;;
13321;SDS011;6730;46.248;6.930;2023-04-25T14:51:12;2.22;;;1.17;;
13321;SDS011;6730;46.248;6.930;2023-04-25T14:53:39;3.08;;;1.40;;
13321;SDS011;6730;46.248;6.930;2023-04-25T14:56:05;2.08;;;1.40;;
13321;SDS011;6730;46.248;6.930;2023-04-25T14:58:32;3.08;;;1.70;;
13321;SDS011;6730;46.248;6.930;2023-04-25T15:00:58;4.50;;;1.60;;
13321;SDS011;6730;46.248;6.930;2023-04-25T15:03:24;4.57;;;1.98;;